createdAt,value
2022-11-07T15:49:06.387Z,12.06
2022-11-07T15:51:32.605Z,12.08
2022-11-07T15:53:58.822Z,12.06
2022-11-07T15:56:25.036Z,12.07
2022-11-07T15:58:51.310Z,12.10
2022-11-07T16:01:23.211Z,12.12
2022-11-07T16:03:49.657Z,12.19
2022-11-07T16:06:17.251Z,12.15
2022-11-07T16:08:46.053Z,12.07
2022-11-07T16:11:12.281Z,12.06
2022-11-07T16:13:44.155Z,12.00
2022-11-07T16:16:14.913Z,11.90
2022-11-07T16:18:43.768Z,11.82
2022-11-07T16:21:09.973Z,11.80
2022-11-07T16:23:36.186Z,11.79
2022-11-07T16:26:02.385Z,11.71
2022-11-07T16:28:30.448Z,11.64
2022-11-07T16:30:56.661Z,11.65
2022-11-07T16:33:23.144Z,11.60
2022-11-07T16:35:49.532Z,11.54
2022-11-07T16:38:16.655Z,11.57
2022-11-07T16:40:43.237Z,11.57
2022-11-07T16:43:09.441Z,11.54
2022-11-07T16:45:35.952Z,11.52
2022-11-07T16:48:02.834Z,11.46
2022-11-07T16:50:29.129Z,11.44
2022-11-07T16:52:55.390Z,11.45
2022-11-07T16:55:21.588Z,11.50
2022-11-07T16:57:47.797Z,11.52
2022-11-07T17:00:20.360Z,11.47
2022-11-07T17:02:46.699Z,11.52
2022-11-07T17:05:13.024Z,11.51
2022-11-07T17:07:39.248Z,11.50
2022-11-07T17:10:05.713Z,11.52
2022-11-07T17:12:31.925Z,11.56
2022-11-07T17:14:58.127Z,11.59
2022-11-07T17:17:24.342Z,11.63
2022-11-07T17:19:50.541Z,11.67
2022-11-07T17:22:16.796Z,11.65
2022-11-07T17:24:43.051Z,11.65
2022-11-07T17:27:15.166Z,11.70
2022-11-07T17:29:41.389Z,11.75
2022-11-07T17:32:07.610Z,11.87
2022-11-07T17:34:33.808Z,11.82
2022-11-07T17:37:00.021Z,11.82
2022-11-07T17:39:26.236Z,11.86
2022-11-07T17:41:52.462Z,11.86
2022-11-07T17:44:18.719Z,11.81
2022-11-07T17:46:48.217Z,11.78
2022-11-07T17:49:15.173Z,11.89
2022-11-07T17:51:41.390Z,11.93
2022-11-07T17:54:07.652Z,11.94
2022-11-07T17:56:33.859Z,11.89
2022-11-07T17:59:01.017Z,11.91
2022-11-07T18:01:28.479Z,11.96
2022-11-07T18:03:54.863Z,12.02
2022-11-07T18:06:21.277Z,12.06
2022-11-07T18:08:54.919Z,12.00
2022-11-07T18:11:22.249Z,12.11
2022-11-07T18:13:52.008Z,12.04
2022-11-07T18:16:19.327Z,12.11
2022-11-07T18:18:45.596Z,12.08
2022-11-07T18:21:11.819Z,12.06
2022-11-07T18:23:38.067Z,12.11
2022-11-07T18:26:04.549Z,12.10
2022-11-07T18:28:30.760Z,12.09
2022-11-07T18:39:26.338Z,11.96
2022-11-07T18:41:52.573Z,12.01
2022-11-07T18:44:18.837Z,12.04
2022-11-07T18:49:33.944Z,12.07
2022-11-07T18:52:11.226Z,12.06
2022-11-07T18:54:39.019Z,12.03
2022-11-07T18:57:11.303Z,12.03
2022-11-07T18:59:37.532Z,12.08
2022-11-07T19:02:06.126Z,12.10
2022-11-07T19:04:32.365Z,12.09
2022-11-07T19:06:58.571Z,12.04
2022-11-07T19:09:28.793Z,12.10
2022-11-07T19:11:55.405Z,12.16
2022-11-07T19:14:21.617Z,12.15
2022-11-07T19:16:47.830Z,12.17
2022-11-07T19:19:14.047Z,12.17
2022-11-07T19:21:42.840Z,12.14
2022-11-07T19:24:09.978Z,12.20
2022-11-07T19:26:36.188Z,12.27
2022-11-07T19:29:02.405Z,12.23
2022-11-07T19:31:34.479Z,12.28
2022-11-07T19:34:01.065Z,12.23
2022-11-07T19:36:27.272Z,12.19
2022-11-07T19:38:53.479Z,12.18
2022-11-07T19:41:19.686Z,12.22
2022-11-07T19:43:45.921Z,12.22
2022-11-07T19:46:13.510Z,12.22
2022-11-07T19:48:39.717Z,12.28
2022-11-07T19:51:06.431Z,12.23
2022-11-07T19:53:32.640Z,12.16
2022-11-07T19:55:58.874Z,12.19
2022-11-07T19:58:25.082Z,12.15
2022-11-07T20:00:51.350Z,12.11
2022-11-07T20:03:17.958Z,12.09
2022-11-07T20:05:44.414Z,12.07
2022-11-07T20:08:10.636Z,12.09
2022-11-07T20:10:36.917Z,12.06
2022-11-07T20:13:03.138Z,12.03
2022-11-07T20:15:29.357Z,11.90
2022-11-07T20:17:55.580Z,11.97
2022-11-07T20:20:21.805Z,11.93
2022-11-07T20:22:48.010Z,11.90
2022-11-07T20:25:14.233Z,11.87
2022-11-07T20:27:40.438Z,11.88
2022-11-07T20:30:07.089Z,11.88
2022-11-07T20:32:33.307Z,11.82
2022-11-07T20:34:59.516Z,11.84
2022-11-07T20:37:25.713Z,11.76
2022-11-07T20:39:51.921Z,11.75
2022-11-07T20:42:18.364Z,11.87
2022-11-07T20:44:44.661Z,11.77
2022-11-07T20:47:11.044Z,11.75
2022-11-07T20:49:37.370Z,11.68
2022-11-07T20:52:03.597Z,11.64
2022-11-07T20:54:29.837Z,11.75
2022-11-07T20:56:56.041Z,11.68
2022-11-07T20:59:22.285Z,11.70
2022-11-07T21:01:48.531Z,11.62
2022-11-07T21:04:14.811Z,11.60
2022-11-07T21:06:41.026Z,11.62
2022-11-07T21:09:07.234Z,11.56
2022-11-07T21:11:34.052Z,11.56
2022-11-07T21:14:00.265Z,11.61
2022-11-07T21:16:26.525Z,11.59
2022-11-07T21:18:52.993Z,11.56
2022-11-07T21:21:23.039Z,11.48
2022-11-07T21:23:49.394Z,11.51
2022-11-07T21:26:16.494Z,11.55
2022-11-07T21:28:42.736Z,11.46
2022-11-07T21:31:10.519Z,11.51
2022-11-07T21:33:36.712Z,11.56
2022-11-07T21:36:06.402Z,11.57
2022-11-07T21:38:32.614Z,11.61
2022-11-07T21:40:58.828Z,11.70
2022-11-07T21:43:25.023Z,11.74
2022-11-07T21:45:51.233Z,11.72
2022-11-07T21:48:17.444Z,11.73
2022-11-07T21:50:45.201Z,11.73
2022-11-07T21:53:11.747Z,11.90
2022-11-07T21:55:37.956Z,11.94
2022-11-07T21:58:04.160Z,11.95
2022-11-07T22:00:35.572Z,11.95
2022-11-07T22:03:02.646Z,11.95
2022-11-07T22:05:28.880Z,12.03
2022-11-07T22:07:55.094Z,12.10
2022-11-07T22:10:21.304Z,12.16
2022-11-07T22:12:47.507Z,12.12
2022-11-07T22:15:13.720Z,12.09
2022-11-07T22:17:39.925Z,12.09
2022-11-07T22:20:06.602Z,12.06
2022-11-07T22:22:32.818Z,12.10
2022-11-07T22:24:59.025Z,12.08
2022-11-07T22:27:25.227Z,12.19
2022-11-07T22:29:51.424Z,12.17
2022-11-07T22:32:17.632Z,12.18
2022-11-07T22:34:43.837Z,12.09
2022-11-07T22:37:10.048Z,12.04
2022-11-07T22:39:36.250Z,12.17
2022-11-07T22:42:02.456Z,12.17
2022-11-07T22:44:28.671Z,12.11
2022-11-07T22:46:54.894Z,12.10
2022-11-07T22:49:21.097Z,12.11
2022-11-07T22:51:47.312Z,12.03
2022-11-07T22:54:13.527Z,12.08
2022-11-07T22:56:39.896Z,12.12
2022-11-07T22:59:06.107Z,12.11
2022-11-07T23:01:33.231Z,12.12
2022-11-07T23:03:59.534Z,12.15
2022-11-07T23:06:25.997Z,12.17
2022-11-07T23:08:52.207Z,12.11
2022-11-07T23:14:08.664Z,12.12
2022-11-07T23:16:38.323Z,12.11
2022-11-07T23:19:05.485Z,12.07
2022-11-07T23:21:31.709Z,12.07
2022-11-07T23:23:58.297Z,12.03
2022-11-07T23:26:24.650Z,12.08
2022-11-07T23:28:50.857Z,12.04
2022-11-07T23:31:17.371Z,12.03
2022-11-07T23:33:43.599Z,12.12
2022-11-07T23:36:10.858Z,12.09
2022-11-07T23:38:37.074Z,12.09
2022-11-07T23:41:03.748Z,12.10
2022-11-07T23:43:30.160Z,12.03
2022-11-07T23:45:56.770Z,11.97
2022-11-07T23:48:22.973Z,12.07
2022-11-07T23:50:49.167Z,12.05
2022-11-07T23:53:15.383Z,12.10
2022-11-07T23:55:41.609Z,12.04
2022-11-07T23:58:07.825Z,12.07
